createdAt,value
2019-03-20T00:00:59.734Z,101043.87
2019-03-20T00:03:25.765Z,101047.84
2019-03-20T00:05:51.619Z,101044.33
2019-03-20T00:08:17.468Z,101046.47
2019-03-20T00:10:43.352Z,101049.58
2019-03-20T00:13:09.190Z,101054.84
2019-03-20T00:15:35.192Z,101060.08
2019-03-20T00:18:01.034Z,101068.00
2019-03-20T00:20:26.882Z,101060.50
2019-03-20T00:22:52.874Z,101062.69
2019-03-20T00:25:18.715Z,101063.13
2019-03-20T00:27:44.661Z,101068.81
2019-03-20T00:30:14.297Z,101062.25
2019-03-20T00:32:40.575Z,101066.20
2019-03-20T00:35:06.651Z,101061.38
2019-03-20T00:37:32.639Z,101062.68
2019-03-20T00:39:58.597Z,101063.52
2019-03-20T00:42:24.500Z,101071.88
2019-03-20T00:44:50.339Z,101068.75
2019-03-20T00:47:16.279Z,101074.42
2019-03-20T00:49:42.520Z,101068.73
2019-03-20T00:52:08.351Z,101069.98
2019-03-20T00:54:34.347Z,101069.92
2019-03-20T00:57:00.467Z,101073.41
2019-03-20T00:59:26.420Z,101069.84
2019-03-20T01:01:52.274Z,101071.09
2019-03-20T01:04:18.172Z,101068.44
2019-03-20T01:06:44.003Z,101078.11
2019-03-20T01:09:09.937Z,101074.19
2019-03-20T01:11:35.808Z,101074.63
2019-03-20T01:14:01.755Z,101076.78
2019-03-20T01:16:27.740Z,101076.80
2019-03-20T01:18:53.574Z,101079.02
2019-03-20T01:21:19.409Z,101071.47
2019-03-20T01:23:45.288Z,101076.27
2019-03-20T01:26:11.241Z,101077.59
2019-03-20T01:28:37.202Z,101084.17
2019-03-20T01:31:03.278Z,101079.34
2019-03-20T01:33:29.112Z,101079.36
2019-03-20T01:35:55.002Z,101072.37
2019-03-20T01:38:20.972Z,101081.97
2019-03-20T01:40:46.805Z,101085.03
2019-03-20T01:43:12.807Z,101083.72
2019-03-20T01:45:38.961Z,101075.34
2019-03-20T01:48:05.078Z,101062.59
2019-03-20T01:50:31.081Z,101083.62
2019-03-20T01:52:56.934Z,101073.93
2019-03-20T01:55:26.809Z,101078.81
2019-03-20T01:57:52.958Z,101077.89
2019-03-20T02:00:18.905Z,101072.14
2019-03-20T02:02:44.833Z,101066.05
2019-03-20T02:05:11.129Z,101070.45
2019-03-20T02:07:36.988Z,101086.67
2019-03-20T02:10:09.104Z,101075.31
2019-03-20T02:12:35.051Z,101076.98
2019-03-20T02:15:00.884Z,101073.47
2019-03-20T02:17:26.783Z,101073.47
2019-03-20T02:19:52.728Z,101073.38
2019-03-20T02:22:18.609Z,101076.04
2019-03-20T02:24:44.607Z,101069.12
2019-03-20T02:27:10.429Z,101073.39
2019-03-20T02:29:36.276Z,101074.20
2019-03-20T02:32:02.255Z,101071.14
2019-03-20T02:34:28.218Z,101071.55
2019-03-20T02:36:54.273Z,101070.69
2019-03-20T02:39:20.349Z,101073.28
2019-03-20T02:41:46.410Z,101064.03
2019-03-20T02:44:12.432Z,101064.92
2019-03-20T02:46:38.376Z,101068.41
2019-03-20T02:49:04.373Z,101067.99
2019-03-20T02:51:30.432Z,101066.75
2019-03-20T02:53:56.372Z,101072.39
2019-03-20T02:56:22.210Z,101064.45
2019-03-20T02:58:48.235Z,101074.56
2019-03-20T03:01:14.197Z,101072.39
2019-03-20T03:03:40.316Z,101073.34
2019-03-20T03:06:07.567Z,101077.33
2019-03-20T03:08:33.681Z,101073.82
2019-03-20T03:10:59.646Z,101080.77
2019-03-20T03:13:25.501Z,101071.23
2019-03-20T03:15:51.503Z,101087.43
2019-03-20T03:18:17.354Z,101080.03
2019-03-20T03:20:43.190Z,101080.02
2019-03-20T03:23:09.192Z,101080.92
2019-03-20T03:25:35.332Z,101086.47
2019-03-20T03:28:01.253Z,101086.47
2019-03-20T03:30:27.078Z,101088.65
2019-03-20T03:32:53.041Z,101093.88
2019-03-20T03:35:20.220Z,101096.02
2019-03-20T03:37:46.561Z,101105.14
2019-03-20T03:40:16.455Z,101098.52
2019-03-20T03:42:42.831Z,101095.89
2019-03-20T03:45:15.736Z,101104.18
2019-03-20T03:47:41.780Z,101113.31
2019-03-20T03:50:09.079Z,101116.80
2019-03-20T03:52:35.151Z,101114.63
2019-03-20T03:55:01.107Z,101116.29
2019-03-20T03:57:27.425Z,101114.91
2019-03-20T03:59:56.557Z,101112.73
2019-03-20T04:02:22.644Z,101113.05
2019-03-20T04:04:48.804Z,101109.89
2019-03-20T04:07:14.704Z,101109.89
2019-03-20T04:09:40.650Z,101122.01
2019-03-20T04:12:06.560Z,101121.19
2019-03-20T04:14:32.550Z,101123.05
2019-03-20T04:16:58.388Z,101132.55
2019-03-20T04:19:24.431Z,101129.38
2019-03-20T04:21:50.293Z,101134.23
2019-03-20T04:24:16.216Z,101129.84
2019-03-20T04:26:42.310Z,101143.27
2019-03-20T04:29:08.175Z,101133.72
2019-03-20T04:31:34.030Z,101133.72
2019-03-20T04:33:59.895Z,101147.30
2019-03-20T04:36:25.930Z,101146.89
2019-03-20T04:38:51.928Z,101144.78
2019-03-20T04:41:17.901Z,101155.58
2019-03-20T04:43:43.837Z,101149.92
2019-03-20T04:46:09.883Z,101152.63
2019-03-20T04:48:35.822Z,101156.22
2019-03-20T04:51:01.694Z,101156.22
2019-03-20T04:53:27.580Z,101168.09
2019-03-20T04:55:53.574Z,101172.39
2019-03-20T04:58:19.526Z,101176.16
2019-03-20T05:00:49.027Z,101172.56
2019-03-20T05:03:14.860Z,101172.94
2019-03-20T05:05:40.882Z,101175.16
2019-03-20T05:08:06.732Z,101178.21
2019-03-20T05:10:32.579Z,101180.81
2019-03-20T05:12:58.573Z,101182.03
2019-03-20T05:15:24.430Z,101184.22
2019-03-20T05:17:50.442Z,101184.22
2019-03-20T05:20:20.388Z,101189.07
2019-03-20T05:22:46.463Z,101189.07
2019-03-20T05:25:12.542Z,101195.48
2019-03-20T05:27:38.613Z,101189.45
2019-03-20T05:30:07.767Z,101190.84
2019-03-20T05:32:33.610Z,101197.05
2019-03-20T05:34:59.606Z,101201.47
2019-03-20T05:37:25.622Z,101227.56
2019-03-20T05:39:51.509Z,101202.72
2019-03-20T05:42:17.406Z,101201.50
2019-03-20T05:44:43.454Z,101208.00
2019-03-20T05:47:09.311Z,101210.44
2019-03-20T05:49:35.126Z,101210.44
2019-03-20T05:52:01.130Z,101226.25
2019-03-20T05:54:27.116Z,101224.89
2019-03-20T05:56:52.917Z,101227.94
2019-03-20T05:59:19.051Z,101231.55
2019-03-20T06:01:45.319Z,101229.95
2019-03-20T06:04:11.185Z,101244.86
2019-03-20T06:06:37.039Z,101228.80
2019-03-20T06:09:05.622Z,101244.86
2019-03-20T06:11:31.776Z,101250.67
2019-03-20T06:13:57.622Z,101250.67
2019-03-20T06:16:23.549Z,101240.27
2019-03-20T06:18:49.374Z,101250.84
2019-03-20T06:21:15.523Z,101278.02
2019-03-20T06:23:41.401Z,101260.58
2019-03-20T06:26:07.266Z,101259.79
2019-03-20T06:28:33.108Z,101261.69
2019-03-20T06:30:59.084Z,101258.83
2019-03-20T06:33:24.880Z,101268.32
2019-03-20T06:35:50.883Z,101267.96
2019-03-20T06:38:16.843Z,101270.36
2019-03-20T06:40:42.821Z,101261.75
2019-03-20T06:43:08.644Z,101275.42
2019-03-20T06:45:34.494Z,101277.91
2019-03-20T06:48:01.016Z,101279.23
2019-03-20T06:50:26.859Z,101280.27
2019-03-20T06:52:52.973Z,101282.94
2019-03-20T06:55:19.019Z,101286.05
2019-03-20T06:57:45.046Z,101288.82
2019-03-20T07:00:33.243Z,101290.42
2019-03-20T07:03:18.636Z,101290.55
2019-03-20T07:06:03.293Z,101292.41
2019-03-20T07:08:39.143Z,101292.41
2019-03-20T07:11:04.896Z,101274.57
2019-03-20T07:13:30.716Z,101297.47
2019-03-20T07:15:56.748Z,101296.25
2019-03-20T07:18:22.549Z,101316.11
2019-03-20T07:20:48.404Z,101300.41
2019-03-20T07:23:14.352Z,101324.08
2019-03-20T07:25:40.166Z,101315.32
2019-03-20T07:28:06.007Z,101310.59
2019-03-20T07:30:31.857Z,101310.65
2019-03-20T07:32:57.691Z,101312.03
2019-03-20T07:35:23.698Z,101310.74
2019-03-20T07:37:55.969Z,101311.98
2019-03-20T07:40:17.523Z,101319.10
2019-03-20T07:42:43.446Z,101320.07
2019-03-20T07:45:09.392Z,101320.54
2019-03-20T07:47:35.245Z,101321.02
2019-03-20T07:50:01.545Z,101318.84
2019-03-20T07:52:27.451Z,101328.09
2019-03-20T07:54:54.791Z,101323.28
2019-03-20T07:57:20.896Z,101323.27
2019-03-20T07:59:46.754Z,101329.88
2019-03-20T08:02:12.590Z,101331.18
2019-03-20T08:04:38.640Z,101334.72
2019-03-20T08:07:04.585Z,101330.75
2019-03-20T08:09:30.702Z,101340.00
2019-03-20T08:11:56.662Z,101336.89
2019-03-20T08:14:22.501Z,101360.24
2019-03-20T08:16:48.494Z,101341.26
2019-03-20T08:19:14.317Z,101346.97
2019-03-20T08:21:41.560Z,101344.72
2019-03-20T08:24:07.456Z,101340.76
2019-03-20T08:26:33.380Z,101342.95
2019-03-20T08:28:59.296Z,101343.27
2019-03-20T08:31:25.214Z,101340.53
2019-03-20T08:33:51.071Z,101336.02
2019-03-20T08:36:17.159Z,101349.29
2019-03-20T08:38:42.992Z,101338.19
2019-03-20T08:41:09.028Z,101338.48
2019-03-20T08:43:34.912Z,101337.62
2019-03-20T08:46:00.826Z,101341.13
2019-03-20T08:48:26.968Z,101341.57
2019-03-20T08:50:52.914Z,101338.94
2019-03-20T08:53:18.826Z,101340.73
2019-03-20T08:55:44.837Z,101333.44
2019-03-20T08:58:10.792Z,101340.16
2019-03-20T09:00:36.631Z,101340.63
2019-03-20T09:03:02.741Z,101331.35
2019-03-20T09:05:28.742Z,101331.20
2019-03-20T09:07:54.525Z,101339.91
2019-03-20T09:10:21.533Z,101336.73
2019-03-20T09:12:47.568Z,101339.42
2019-03-20T09:15:14.804Z,101345.14
2019-03-20T09:17:40.780Z,101346.81
2019-03-20T09:20:10.321Z,101344.19
2019-03-20T09:22:36.364Z,101346.53
2019-03-20T09:25:05.272Z,101349.28
2019-03-20T09:27:31.099Z,101347.95
2019-03-20T09:29:57.042Z,101348.34
2019-03-20T09:32:22.988Z,101345.89
2019-03-20T09:34:48.829Z,101348.31
2019-03-20T09:37:14.672Z,101348.70
2019-03-20T09:39:40.643Z,101352.64
2019-03-20T09:42:06.574Z,101351.68
2019-03-20T09:44:32.536Z,101356.35
2019-03-20T09:46:58.428Z,101356.87
2019-03-20T09:49:24.291Z,101355.59
2019-03-20T09:51:50.299Z,101352.89
2019-03-20T09:54:16.426Z,101372.17
2019-03-20T09:56:42.279Z,101343.24
2019-03-20T09:59:08.246Z,101341.25
2019-03-20T10:01:34.079Z,101344.94
2019-03-20T10:04:00.037Z,101344.57
2019-03-20T10:06:26.015Z,101339.75
2019-03-20T10:08:54.296Z,101336.56
2019-03-20T10:11:19.795Z,101346.20
2019-03-20T10:13:45.684Z,101334.45
2019-03-20T10:16:11.642Z,101339.25
2019-03-20T10:18:37.586Z,101329.55
2019-03-20T10:21:03.576Z,101333.84
2019-03-20T10:23:29.409Z,101332.52
2019-03-20T10:25:55.285Z,101329.42
2019-03-20T10:28:21.129Z,101329.14
2019-03-20T10:30:47.184Z,101331.17
2019-03-20T10:33:13.139Z,101329.31
2019-03-20T10:35:49.692Z,101337.98
2019-03-20T10:38:07.012Z,101335.76
2019-03-20T10:40:33.088Z,101323.62
2019-03-20T10:42:59.101Z,101324.39
2019-03-20T10:45:25.256Z,101319.67
2019-03-20T10:47:53.062Z,101314.34
2019-03-20T10:50:21.762Z,101317.78
2019-03-20T10:52:47.705Z,101310.14
2019-03-20T10:55:13.783Z,101315.43
2019-03-20T10:57:39.970Z,101317.58
2019-03-20T11:00:12.995Z,101319.58
2019-03-20T11:02:38.858Z,101318.20
2019-03-20T11:05:06.194Z,101320.34
2019-03-20T11:07:31.990Z,101316.51
2019-03-20T11:09:57.836Z,101308.56
2019-03-20T11:12:23.800Z,101305.50
2019-03-20T11:14:49.856Z,101312.97
2019-03-20T11:17:15.891Z,101303.50
2019-03-20T11:19:41.714Z,101308.88
2019-03-20T11:22:18.212Z,101309.13
2019-03-20T11:24:35.558Z,101312.42
2019-03-20T11:27:01.496Z,101306.36
2019-03-20T11:29:28.962Z,101300.48
2019-03-20T11:31:54.973Z,101301.00
2019-03-20T11:34:20.828Z,101302.38
2019-03-20T11:36:46.658Z,101302.02
2019-03-20T11:39:12.560Z,101227.19
2019-03-20T11:41:38.511Z,101284.99
2019-03-20T11:44:04.672Z,101287.33
2019-03-20T11:46:30.789Z,101291.78
2019-03-20T11:48:56.618Z,101286.34
2019-03-20T11:51:22.526Z,101279.87
2019-03-20T11:53:48.526Z,101273.09
2019-03-20T11:56:14.368Z,101262.09
2019-03-20T11:58:40.479Z,101255.16
2019-03-20T12:01:06.404Z,101250.11
2019-03-20T12:03:32.256Z,101252.36
2019-03-20T12:05:58.321Z,101254.37
2019-03-20T12:08:24.267Z,101251.42
2019-03-20T12:10:50.113Z,101241.73
2019-03-20T12:13:16.020Z,101238.70
2019-03-20T12:15:41.854Z,101238.77
2019-03-20T12:18:07.801Z,101246.61
2019-03-20T12:20:33.759Z,101234.02
2019-03-20T12:22:59.731Z,101232.25
2019-03-20T12:25:34.733Z,101228.59
2019-03-20T12:28:00.663Z,101225.51
2019-03-20T12:30:31.993Z,101217.71
2019-03-20T12:32:58.261Z,101220.52
2019-03-20T12:35:26.555Z,101217.41
2019-03-20T12:37:52.582Z,101220.78
2019-03-20T12:40:21.429Z,101215.63
2019-03-20T12:42:47.656Z,101202.09
2019-03-20T12:45:16.613Z,101222.61
2019-03-20T12:47:42.587Z,101183.48
2019-03-20T12:50:10.871Z,101177.20
2019-03-20T12:52:36.683Z,101164.38
2019-03-20T12:55:05.577Z,101186.53
2019-03-20T12:57:31.477Z,101172.77
2019-03-20T12:59:57.643Z,101182.20
2019-03-20T13:02:23.654Z,101170.17
2019-03-20T13:04:49.597Z,101170.38
2019-03-20T13:07:19.437Z,101169.41
2019-03-20T13:09:45.408Z,101168.38
2019-03-20T13:12:11.474Z,101158.12
2019-03-20T13:14:37.553Z,101157.07
2019-03-20T13:17:03.871Z,101160.55
2019-03-20T13:19:29.679Z,101155.81
2019-03-20T13:21:55.766Z,101155.40
2019-03-20T13:24:21.744Z,101154.53
2019-03-20T13:26:47.796Z,101146.41
2019-03-20T13:29:13.739Z,101143.89
2019-03-20T13:31:39.832Z,101133.26
2019-03-20T13:34:05.672Z,101137.14
2019-03-20T13:36:31.888Z,101134.27
2019-03-20T13:38:57.840Z,101132.20
2019-03-20T13:41:23.902Z,101144.50
2019-03-20T13:43:49.891Z,101131.36
2019-03-20T13:46:15.807Z,101134.20
2019-03-20T13:48:41.927Z,101136.56
2019-03-20T13:51:08.621Z,101135.78
2019-03-20T13:53:45.807Z,101136.45
2019-03-20T13:56:12.674Z,101134.95
2019-03-20T13:58:38.641Z,101126.44
2019-03-20T14:01:04.876Z,101124.05
2019-03-20T14:03:31.048Z,101109.27
2019-03-20T14:05:56.991Z,101100.08
2019-03-20T14:08:23.393Z,101103.27
2019-03-20T14:10:50.597Z,101111.95
2019-03-20T14:13:17.029Z,101102.78
2019-03-20T14:15:43.292Z,101099.87
2019-03-20T14:18:09.269Z,101107.62
2019-03-20T14:20:35.280Z,101106.97
2019-03-20T14:23:01.507Z,101107.36
2019-03-20T14:25:27.612Z,101097.95
2019-03-20T14:27:53.671Z,101098.50
2019-03-20T14:30:29.606Z,101101.72
2019-03-20T14:32:55.711Z,101101.68
2019-03-20T14:35:21.896Z,101099.52
2019-03-20T14:37:48.048Z,101094.80
2019-03-20T14:40:16.313Z,101101.11
2019-03-20T14:42:42.489Z,101096.77
2019-03-20T14:45:11.002Z,101096.27
2019-03-20T14:47:42.114Z,101092.61
2019-03-20T14:50:17.660Z,101087.02
2019-03-20T14:52:43.850Z,101074.55
2019-03-20T14:55:11.656Z,101087.64
2019-03-20T14:57:37.811Z,101082.02
2019-03-20T15:00:16.588Z,101076.16
2019-03-20T15:02:42.966Z,101071.22
2019-03-20T15:05:09.024Z,101074.23
2019-03-20T15:07:35.054Z,101075.73
2019-03-20T15:10:01.375Z,101071.87
2019-03-20T15:12:27.361Z,101073.83
2019-03-20T15:14:53.222Z,101068.18
2019-03-20T15:17:19.197Z,101073.86
2019-03-20T15:19:45.353Z,101067.84
2019-03-20T15:22:11.194Z,101078.39
2019-03-20T15:24:37.052Z,101071.27
2019-03-20T15:27:03.132Z,101075.34
2019-03-20T15:29:29.116Z,101076.93
2019-03-20T15:31:55.079Z,101067.88
2019-03-20T15:34:21.168Z,101065.27
2019-03-20T15:36:47.032Z,101067.80
2019-03-20T15:39:13.111Z,101069.20
2019-03-20T15:41:38.935Z,101080.91
2019-03-20T15:44:04.895Z,101072.64
2019-03-20T15:46:30.955Z,101072.54
2019-03-20T15:48:56.928Z,101080.30
2019-03-20T15:51:22.984Z,101070.36
2019-03-20T15:53:48.954Z,101072.91
2019-03-20T15:56:14.898Z,101072.86
2019-03-20T15:58:42.401Z,101078.23
2019-03-20T16:01:08.360Z,101074.77
2019-03-20T16:03:41.108Z,101090.75
2019-03-20T16:06:06.935Z,101082.41
2019-03-20T16:08:32.876Z,101088.73
2019-03-20T16:11:06.261Z,101087.42
2019-03-20T16:13:26.755Z,101091.34
2019-03-20T16:15:52.814Z,101084.87
2019-03-20T16:18:18.715Z,101078.27
2019-03-20T16:20:44.559Z,101085.05
2019-03-20T16:23:10.628Z,101086.62
2019-03-20T16:25:36.628Z,101089.11
2019-03-20T16:28:02.785Z,101096.62
2019-03-20T16:30:31.477Z,101098.77
2019-03-20T16:32:57.579Z,101096.05
2019-03-20T16:35:23.636Z,101099.45
2019-03-20T16:37:49.493Z,101109.23
2019-03-20T16:40:24.182Z,101106.22
2019-03-20T16:42:50.168Z,101113.11
2019-03-20T16:45:19.147Z,101109.36
2019-03-20T16:47:45.295Z,101116.29
2019-03-20T16:50:14.533Z,101116.11
2019-03-20T16:52:40.341Z,101120.63
2019-03-20T16:55:09.050Z,101124.27
2019-03-20T16:57:35.237Z,101130.55
2019-03-20T17:00:03.515Z,101131.78
2019-03-20T17:02:29.725Z,101139.16
2019-03-20T17:04:55.680Z,101144.05
2019-03-20T17:07:21.618Z,101141.63
2019-03-20T17:09:47.853Z,101146.62
2019-03-20T17:12:13.911Z,101144.94
2019-03-20T17:14:41.725Z,101151.74
2019-03-20T17:17:07.903Z,101148.65
2019-03-20T17:19:33.720Z,101151.05
2019-03-20T17:21:59.709Z,101157.14
2019-03-20T17:24:25.674Z,101154.11
2019-03-20T17:26:51.642Z,101157.72
2019-03-20T17:29:17.706Z,101160.55
2019-03-20T17:31:43.680Z,101159.69
2019-03-20T17:34:09.543Z,101166.58
2019-03-20T17:36:35.491Z,101164.89
2019-03-20T17:39:01.462Z,101170.86
2019-03-20T17:41:36.294Z,101176.91
2019-03-20T17:43:55.017Z,101179.66
2019-03-20T17:46:21.009Z,101181.57
2019-03-20T17:48:47.128Z,101189.48
2019-03-20T17:51:13.083Z,101184.48
2019-03-20T17:53:39.033Z,101186.99
2019-03-20T17:56:05.110Z,101197.39
2019-03-20T17:58:30.956Z,101200.52
2019-03-20T18:00:57.119Z,101204.05
2019-03-20T18:03:23.309Z,101205.20
2019-03-20T18:05:49.418Z,101210.78
2019-03-20T18:08:15.376Z,101213.98
2019-03-20T18:10:41.742Z,101207.77
2019-03-20T18:13:07.942Z,101218.14
2019-03-20T18:15:34.404Z,101220.21
2019-03-20T18:18:00.859Z,101221.67
2019-03-20T18:20:26.806Z,101227.93
2019-03-20T18:22:52.693Z,101226.31
2019-03-20T18:25:18.791Z,101232.77
2019-03-20T18:27:44.900Z,101240.42
2019-03-20T18:30:17.574Z,101253.47
2019-03-20T18:32:43.747Z,101255.93
2019-03-20T18:35:09.841Z,101247.94
2019-03-20T18:37:35.891Z,101249.61
2019-03-20T18:40:03.563Z,101255.73
2019-03-20T18:42:29.504Z,101259.20
2019-03-20T18:44:55.478Z,101265.53
2019-03-20T18:47:21.423Z,101267.80
2019-03-20T18:49:47.529Z,101276.39
2019-03-20T18:52:13.441Z,101281.21
2019-03-20T18:54:39.496Z,101286.09
2019-03-20T18:57:05.466Z,101285.89
2019-03-20T18:59:31.415Z,101287.78
2019-03-20T19:01:57.402Z,101298.97
2019-03-20T19:04:23.294Z,101301.36
2019-03-20T19:06:49.298Z,101304.42
2019-03-20T19:09:15.160Z,101314.09
2019-03-20T19:11:41.373Z,101313.41
2019-03-20T19:14:07.164Z,101316.88
2019-03-20T19:16:33.266Z,101319.69
2019-03-20T19:18:59.293Z,101329.78
2019-03-20T19:21:25.179Z,101326.70
2019-03-20T19:23:51.137Z,101335.44
2019-03-20T19:26:17.512Z,101339.94
2019-03-20T19:28:43.449Z,101336.43
2019-03-20T19:31:09.609Z,101354.50
2019-03-20T19:33:35.583Z,101347.73
2019-03-20T19:36:01.519Z,101346.72
2019-03-20T19:38:34.791Z,101362.50
2019-03-20T19:40:55.509Z,101354.92
2019-03-20T19:43:22.754Z,101387.53
2019-03-20T19:45:49.486Z,101369.67
2019-03-20T19:48:15.334Z,101359.64
2019-03-20T19:50:41.318Z,101367.88
2019-03-20T19:53:07.240Z,101370.61
2019-03-20T19:55:33.409Z,101378.59
2019-03-20T19:57:59.155Z,101377.86
2019-03-20T20:00:26.784Z,101384.52
2019-03-20T20:02:53.043Z,101413.37
2019-03-20T20:05:19.107Z,101389.91
2019-03-20T20:07:44.946Z,101389.02
2019-03-20T20:10:18.023Z,101381.95
2019-03-20T20:12:44.235Z,101387.30
2019-03-20T20:15:27.256Z,101408.12
2019-03-20T20:17:53.453Z,101393.64
2019-03-20T20:20:20.702Z,101396.70
2019-03-20T20:22:46.821Z,101395.15
2019-03-20T20:25:12.695Z,101392.55
2019-03-20T20:27:38.647Z,101388.50
2019-03-20T20:30:08.387Z,101394.64
2019-03-20T20:32:34.549Z,101391.19
2019-03-20T20:35:00.409Z,101398.17
2019-03-20T20:37:26.861Z,101403.13
2019-03-20T20:39:52.806Z,101405.77
2019-03-20T20:42:18.839Z,101406.25
2019-03-20T20:44:44.823Z,101407.63
2019-03-20T20:47:10.795Z,101405.47
2019-03-20T20:49:36.745Z,101410.75
2019-03-20T20:52:02.804Z,101410.34
2019-03-20T20:54:28.891Z,101409.42
2019-03-20T20:56:54.876Z,101413.34
2019-03-20T20:59:20.736Z,101408.16
2019-03-20T21:01:46.805Z,101413.03
2019-03-20T21:04:12.661Z,101409.45
2019-03-20T21:06:38.608Z,101416.98
2019-03-20T21:09:06.209Z,101413.87
2019-03-20T21:11:32.030Z,101418.69
2019-03-20T21:13:57.930Z,101422.23
2019-03-20T21:16:23.795Z,101426.66
2019-03-20T21:18:56.506Z,101428.81
2019-03-20T21:21:22.352Z,101432.36
2019-03-20T21:24:25.923Z,101435.45
2019-03-20T21:27:05.502Z,101439.43
2019-03-20T21:29:37.870Z,101438.50
2019-03-20T21:32:16.862Z,101449.52
2019-03-20T21:35:12.332Z,101448.20
2019-03-20T21:38:03.515Z,101453.44
2019-03-20T21:40:35.135Z,101458.25
2019-03-20T21:43:36.718Z,101455.15
2019-03-20T21:46:06.363Z,101461.31
2019-03-20T21:48:32.294Z,101462.63
2019-03-20T21:51:14.888Z,101459.05
2019-03-20T21:53:47.458Z,101462.51
2019-03-20T21:56:26.220Z,101455.91
2019-03-20T21:59:18.832Z,101460.76
2019-03-20T22:02:11.759Z,101451.55
2019-03-20T22:04:37.597Z,101448.45
2019-03-20T22:07:07.867Z,101460.34
2019-03-20T22:09:43.640Z,101456.78
2019-03-20T22:12:19.250Z,101461.22
2019-03-20T22:14:48.955Z,101455.95
2019-03-20T22:17:24.818Z,101467.81
2019-03-20T22:19:57.023Z,101466.94
2019-03-20T22:22:38.788Z,101462.95
2019-03-20T22:25:42.091Z,101464.64
2019-03-20T22:28:26.965Z,101461.09
2019-03-20T22:30:52.920Z,101457.06
2019-03-20T22:33:55.989Z,101453.59
2019-03-20T22:36:21.839Z,101450.91
2019-03-20T22:39:08.168Z,101453.13
2019-03-20T22:41:46.939Z,101451.00
2019-03-20T22:44:12.919Z,101456.20
2019-03-20T22:47:05.466Z,101459.38
2019-03-20T22:49:53.125Z,101461.02
2019-03-20T22:52:37.869Z,101460.14
2019-03-20T22:55:22.186Z,101469.72
2019-03-20T22:58:08.586Z,101468.49
2019-03-20T23:00:34.767Z,101468.55
2019-03-20T23:03:12.971Z,101466.75
2019-03-20T23:05:38.818Z,101473.22
2019-03-20T23:08:10.870Z,101470.97
2019-03-20T23:10:36.694Z,101478.85
2019-03-20T23:13:04.419Z,101469.98
2019-03-20T23:15:30.393Z,101465.10
2019-03-20T23:17:56.498Z,101469.52
2019-03-20T23:20:25.782Z,101472.95
2019-03-20T23:22:51.635Z,101477.43
2019-03-20T23:25:17.569Z,101475.12
2019-03-20T23:27:43.608Z,101476.88
2019-03-20T23:30:16.156Z,101480.52
2019-03-20T23:32:41.986Z,101479.37
2019-03-20T23:35:08.000Z,101483.27
2019-03-20T23:37:33.830Z,101486.78
2019-03-20T23:39:59.769Z,101480.52
2019-03-20T23:42:25.823Z,101487.97
2019-03-20T23:44:51.777Z,101483.08
2019-03-20T23:47:21.396Z,101489.47
2019-03-20T23:49:47.320Z,101489.89
2019-03-20T23:52:13.146Z,101491.88
2019-03-20T23:54:43.366Z,101492.20
2019-03-20T23:57:09.215Z,101498.33
2019-03-20T23:59:35.101Z,101505.78
